ENVAENBN

Guest
Details From ENVA - Vaernes
To ENBN - BRONNOY
Flight Number -
Tags generated
Created
Modified
Stats Distance 125 nm / 231 km
Max Altitude 6,100 ft / 1,859 m
Waypoints 3
Social Downloads 1
Likes 0
Share VATSIM

Download

Looking for another format? Having issues loading an existing format? Contact us
Advertisement - Login to hide

Notes

Basic altitude profile: - Ascent Rate: 2500ft/min - Ascent Speed: 220kts - Cruise Altitude: 13000ft - Cruise Speed: 420kts - Descent Rate: 1500ft/min - Descent Speed: 250kts

Route

ENVA BINTU ENBN

ID Type Via Altitude Latitude Longitude Leg Dist Tot Dist Heading (true) Name
O ENVA APT - 0 ft / 0 m 63.45760˚ 10.91798˚ - 0 nm - Vaernes
BINTU FIX - 6,100 ft / 1,859 m 65.00000˚ 11.88278˚ 95 nm 95 nm 15° / 16° -
O ENBN APT - 0 ft / 0 m 65.45908˚ 12.21347˚ 28 nm 124 nm 17° / 17° BRONNOY

Altitude Profile

Advertisement - Login to hide

ENVA

Details ICAO ENVA (TRD)
Name Vaernes
Region Norway
Timezone Europe/Oslo (UTC+1.0)
Stats Elevation 56 ft / 17 m (AMSL)
Location 63.457605° 10.917980°
Runways 1
Magnetic Variation 3.493° E

METAR

ENVA 111520Z 11006KT CAVOK M02/M08 Q0995 NOSIG RMK WIND 670FT 17012KT

Decode

TAF

TAF ENVA 111100Z 1112/1212 12008KT CAVOK

Decode

Departure Runways

ID Width Length Bearing (true) Bearing (mag) Surface Threshold Offset Overrun Length
09 148 ft / 45 m 9,356 ft / 2,852 m 90.21° 86.72° Asphalt 984 ft / 300 m 0 ft / 0 m
27 148 ft / 45 m 9,356 ft / 2,852 m 270.26° 266.77° Asphalt 689 ft / 210 m 0 ft / 0 m

ENBN

Details ICAO ENBN (BNN)
Name BRONNOY
Region Norway
Timezone Unknown (UTC+0.0)
Stats Elevation 25 ft / 8 m (AMSL)
Location 65.459085° 12.213468°
Runways 1
Magnetic Variation 4.316° E

METAR

ENBN 111520Z 14010KT CAVOK 00/M07 Q0996

Decode

TAF

Not found

Destination Runways

ID Width Length Bearing (true) Bearing (mag) Surface Threshold Offset Overrun Length
04 98 ft / 30 m 4,715 ft / 1,437 m 38.96° 34.64° Asphalt 387 ft / 118 m 0 ft / 0 m
22 98 ft / 30 m 4,715 ft / 1,437 m 218.97° 214.65° Asphalt 387 ft / 118 m 0 ft / 0 m

Approach Navaids

Runway Type Ident Frequency Range Bearing (true) Bearing (mag) Slope Elevation
04 Localiser BY 111.15 MHz 18 nm / 33 km 39.59° 35.28° - 69 ft / 21 m (AMSL)